createdAt,value
2019-05-19T00:01:34.735Z,57.46
2019-05-19T00:03:34.442Z,57.86
2019-05-19T00:05:34.502Z,57.86
2019-05-19T00:06:34.541Z,57.86
2019-05-19T00:07:34.693Z,57.86
2019-05-19T00:08:34.629Z,58.04
2019-05-19T00:09:34.638Z,58.04
2019-05-19T00:10:34.794Z,58.04
2019-05-19T00:12:34.735Z,57.86
2019-05-19T00:13:34.783Z,57.76
2019-05-19T00:14:34.985Z,57.86
2019-05-19T00:15:34.891Z,57.86
2019-05-19T00:16:34.890Z,57.56
2019-05-19T00:18:34.953Z,57.86
2019-05-19T00:19:34.984Z,57.76
2019-05-19T00:20:35.427Z,57.95
2019-05-19T00:21:35.052Z,57.66
2019-05-19T00:22:35.328Z,57.66
2019-05-19T00:23:35.199Z,57.76
2019-05-19T00:24:35.847Z,57.66
2019-05-19T00:25:35.235Z,57.95
2019-05-19T00:26:35.452Z,57.66
2019-05-19T00:29:35.332Z,57.95
2019-05-19T00:30:35.369Z,58.04
2019-05-19T00:31:35.434Z,57.76
2019-05-19T00:32:35.443Z,58.04
2019-05-19T00:33:35.470Z,58.04
2019-05-19T00:34:35.751Z,58.04
2019-05-19T00:36:35.574Z,57.86
2019-05-19T00:37:35.603Z,57.95
2019-05-19T00:38:35.665Z,58.04
2019-05-19T00:39:35.675Z,57.95
2019-05-19T00:40:35.711Z,57.76
2019-05-19T00:41:35.819Z,58.53
2019-05-19T00:42:35.820Z,57.86
2019-05-19T00:43:35.805Z,57.86
2019-05-19T00:44:35.845Z,58.63
2019-05-19T00:46:36.019Z,58.34
2019-05-19T00:47:35.940Z,58.44
2019-05-19T00:48:35.980Z,58.63
2019-05-19T00:49:41.239Z,58.53
2019-05-19T00:50:36.059Z,58.63
2019-05-19T00:51:36.079Z,58.63
2019-05-19T00:52:36.114Z,58.53
2019-05-19T00:53:36.146Z,58.72
2019-05-19T00:54:36.179Z,58.63
2019-05-19T00:55:36.225Z,58.44
2019-05-19T00:56:36.254Z,58.34
2019-05-19T00:57:36.239Z,58.44
2019-05-19T00:58:36.317Z,58.63
2019-05-19T00:59:36.357Z,58.63
2019-05-19T01:00:36.396Z,58.63
2019-05-19T01:02:36.556Z,58.14
2019-05-19T01:03:36.492Z,58.44
2019-05-19T01:04:36.525Z,58.14
2019-05-19T01:05:36.653Z,58.14
2019-05-19T01:06:36.548Z,58.44
2019-05-19T01:07:36.635Z,58.44
2019-05-19T01:08:36.659Z,58.14
2019-05-19T01:10:36.729Z,58.14
2019-05-19T01:11:36.766Z,58.34
2019-05-19T01:12:36.754Z,58.24
2019-05-19T01:13:36.832Z,58.24
2019-05-19T01:14:36.871Z,58.24
2019-05-19T01:16:36.943Z,58.24
2019-05-19T01:17:36.977Z,58.24
2019-05-19T01:18:37.010Z,58.34
2019-05-19T01:19:36.985Z,58.44
2019-05-19T01:20:37.070Z,58.34
2019-05-19T01:21:37.103Z,58.34
2019-05-19T01:22:37.142Z,58.34
2019-05-19T01:23:37.171Z,58.44
2019-05-19T01:24:37.208Z,58.44
2019-05-19T01:25:37.242Z,58.44
2019-05-19T01:26:37.285Z,58.53
2019-05-19T01:27:37.316Z,58.63
2019-05-19T01:28:37.358Z,58.53
2019-05-19T01:30:37.417Z,58.44
2019-05-19T01:31:37.453Z,58.34
2019-05-19T01:32:37.430Z,58.34
2019-05-19T01:33:37.516Z,58.44
2019-05-19T01:34:37.553Z,58.53
2019-05-19T01:35:37.596Z,58.53
2019-05-19T01:36:37.622Z,58.34
2019-05-19T01:37:37.653Z,58.44
2019-05-19T01:38:37.686Z,58.44
2019-05-19T01:41:37.798Z,58.24
2019-05-19T01:42:37.828Z,58.24
2019-05-19T01:43:37.867Z,58.14
2019-05-19T01:44:37.899Z,58.44
2019-05-19T01:46:37.963Z,58.44
2019-05-19T01:47:38.000Z,58.44
2019-05-19T01:48:38.055Z,58.34
2019-05-19T01:49:38.073Z,58.53
2019-05-19T01:50:38.118Z,58.34
2019-05-19T01:51:38.142Z,58.63
2019-05-19T01:53:38.206Z,58.72
2019-05-19T01:54:38.235Z,58.72
2019-05-19T01:55:38.271Z,58.72
2019-05-19T01:56:38.313Z,58.63
2019-05-19T01:57:38.339Z,58.72
2019-05-19T01:58:38.376Z,58.63
2019-05-19T01:59:38.417Z,58.63
2019-05-19T02:00:38.445Z,58.63
2019-05-19T02:01:38.483Z,58.72
2019-05-19T02:02:38.516Z,58.63
2019-05-19T02:03:38.554Z,58.63
2019-05-19T02:04:38.581Z,58.72
2019-05-19T02:05:38.614Z,58.63
2019-05-19T02:06:38.652Z,58.44
2019-05-19T02:08:38.720Z,58.63
2019-05-19T02:09:38.767Z,58.63
2019-05-19T02:10:38.791Z,58.63
2019-05-19T02:11:38.839Z,58.63
2019-05-19T02:12:38.853Z,58.63
2019-05-19T02:13:38.886Z,58.63
2019-05-19T02:14:38.971Z,58.63
2019-05-19T02:17:39.027Z,58.63
2019-05-19T02:18:39.069Z,58.44
2019-05-19T02:19:39.118Z,58.53
2019-05-19T02:20:39.135Z,58.44
2019-05-19T02:21:39.175Z,58.14
2019-05-19T02:22:39.206Z,58.24
2019-05-19T02:23:39.231Z,58.34
2019-05-19T02:24:39.271Z,58.34
2019-05-19T02:25:39.298Z,58.34
2019-05-19T02:26:39.351Z,58.34
2019-05-19T02:27:39.369Z,58.44
2019-05-19T02:28:39.401Z,58.44
2019-05-19T02:29:39.438Z,58.44
2019-05-19T02:30:39.479Z,58.44
2019-05-19T02:31:39.521Z,58.53
2019-05-19T02:32:39.542Z,58.72
2019-05-19T02:33:39.571Z,58.53
2019-05-19T02:34:39.608Z,58.72
2019-05-19T02:35:39.638Z,58.24
2019-05-19T02:37:39.725Z,58.44
2019-05-19T02:38:39.758Z,58.44
2019-05-19T02:39:39.781Z,58.24
2019-05-19T02:40:39.838Z,58.34
2019-05-19T02:41:39.846Z,58.44
2019-05-19T02:42:39.891Z,58.34
2019-05-19T02:43:39.917Z,58.53
2019-05-19T02:44:39.956Z,58.72
2019-05-19T02:45:39.987Z,58.63
2019-05-19T02:47:40.050Z,58.72
2019-05-19T02:48:40.118Z,58.72
2019-05-19T02:49:40.134Z,58.72
2019-05-19T02:50:51.412Z,58.72
2019-05-19T02:53:40.261Z,58.82
2019-05-19T02:54:40.294Z,58.92
2019-05-19T02:55:40.353Z,58.82
2019-05-19T02:56:40.358Z,59.01
2019-05-19T02:57:40.431Z,59.01
2019-05-19T02:59:40.608Z,58.72
2019-05-19T03:00:40.557Z,58.82
2019-05-19T03:02:40.697Z,58.82
2019-05-19T03:03:41.448Z,58.72
2019-05-19T03:04:41.278Z,58.34
2019-05-19T03:05:40.722Z,57.86
2019-05-19T03:07:40.793Z,57.66
2019-05-19T03:08:40.816Z,57.63
2019-05-19T03:09:40.820Z,57.86
2019-05-19T03:10:40.918Z,57.73
2019-05-19T03:11:40.997Z,57.82
2019-05-19T03:12:40.915Z,57.73
2019-05-19T03:13:40.961Z,58.02
2019-05-19T03:15:41.153Z,57.73
2019-05-19T03:16:41.133Z,57.63
2019-05-19T03:17:41.093Z,57.41
2019-05-19T03:18:41.161Z,57.82
2019-05-19T03:19:41.270Z,58.12
2019-05-19T03:20:41.357Z,58.28
2019-05-19T03:21:41.304Z,58.47
2019-05-19T03:22:41.302Z,58.28
2019-05-19T03:23:41.288Z,58.57
2019-05-19T03:24:41.372Z,58.18
2019-05-19T03:27:41.575Z,58.28
2019-05-19T03:28:41.543Z,58.57
2019-05-19T03:29:41.553Z,58.67
2019-05-19T03:30:41.742Z,58.18
2019-05-19T03:31:41.830Z,58.95
2019-05-19T03:32:41.601Z,59.05
2019-05-19T03:33:41.705Z,58.64
2019-05-19T03:34:41.698Z,59.12
2019-05-19T03:36:41.991Z,58.73
2019-05-19T03:37:41.951Z,58.93
2019-05-19T03:38:41.900Z,58.54
2019-05-19T03:39:41.824Z,58.83
2019-05-19T03:41:41.968Z,58.83
2019-05-19T03:42:42.036Z,58.73
2019-05-19T03:43:41.991Z,59.12
2019-05-19T03:44:42.013Z,58.93
2019-05-19T03:46:42.069Z,58.64
2019-05-19T03:47:42.236Z,59.12
2019-05-19T03:48:42.145Z,59.41
2019-05-19T03:49:42.235Z,59.51
2019-05-19T03:50:42.215Z,59.99
2019-05-19T03:51:42.251Z,59.60
2019-05-19T03:52:42.368Z,59.51
2019-05-19T03:54:42.392Z,59.60
2019-05-19T03:58:42.506Z,59.51
2019-05-19T03:59:42.536Z,59.70
2019-05-19T04:00:42.553Z,59.60
2019-05-19T04:02:42.613Z,59.99
2019-05-19T04:03:42.716Z,60.16
2019-05-19T04:04:42.703Z,59.99
2019-05-19T04:05:42.869Z,59.99
2019-05-19T04:06:42.756Z,60.06
2019-05-19T04:08:42.868Z,59.96
2019-05-19T04:12:42.985Z,60.25
2019-05-19T04:13:43.029Z,59.96
2019-05-19T04:15:43.149Z,60.64
2019-05-19T04:16:43.097Z,59.96
2019-05-19T04:18:43.146Z,60.64
2019-05-19T04:19:43.189Z,60.44
2019-05-19T04:20:43.333Z,60.35
2019-05-19T04:21:48.890Z,60.25
2019-05-19T04:22:43.311Z,60.35
2019-05-19T04:23:43.325Z,60.25
2019-05-19T04:24:43.499Z,60.35
2019-05-19T04:25:43.381Z,60.54
2019-05-19T04:27:43.538Z,60.54
2019-05-19T04:29:43.553Z,60.25
2019-05-19T04:30:43.547Z,60.35
2019-05-19T04:32:43.668Z,60.44
2019-05-19T04:33:43.761Z,60.44
2019-05-19T04:34:43.683Z,60.44
2019-05-19T04:36:43.757Z,60.44
2019-05-19T04:37:43.767Z,60.64
2019-05-19T04:38:43.825Z,60.83
2019-05-19T04:39:43.921Z,60.64
2019-05-19T04:40:44.061Z,60.83
2019-05-19T04:41:43.929Z,60.64
2019-05-19T04:42:43.962Z,60.83
2019-05-19T04:43:44.141Z,61.02
2019-05-19T04:44:44.018Z,60.83
2019-05-19T04:45:44.264Z,61.12
2019-05-19T04:46:44.116Z,60.89
2019-05-19T04:47:44.633Z,61.02
2019-05-19T04:48:44.143Z,61.38
2019-05-19T04:49:44.169Z,61.12
2019-05-19T04:51:44.295Z,61.31
2019-05-19T04:52:44.325Z,61.38
2019-05-19T04:53:44.425Z,61.28
2019-05-19T04:54:44.336Z,61.47
2019-05-19T04:55:44.397Z,61.38
2019-05-19T04:56:44.430Z,61.38
2019-05-19T04:57:44.537Z,61.57
2019-05-19T04:58:44.564Z,61.47
2019-05-19T05:00:44.686Z,61.38
2019-05-19T05:01:44.931Z,61.51
2019-05-19T05:02:44.619Z,61.28
2019-05-19T05:03:45.005Z,61.67
2019-05-19T05:04:44.815Z,61.51
2019-05-19T05:05:45.111Z,61.47
2019-05-19T05:06:44.766Z,61.41
2019-05-19T05:07:44.796Z,61.47
2019-05-19T05:08:44.964Z,61.47
2019-05-19T05:09:44.945Z,60.99
2019-05-19T05:10:44.904Z,61.22
2019-05-19T05:11:44.941Z,61.47
2019-05-19T05:12:45.019Z,61.22
2019-05-19T05:13:45.174Z,61.41
2019-05-19T05:14:45.193Z,61.19
2019-05-19T05:15:45.038Z,61.47
2019-05-19T05:16:45.106Z,61.12
2019-05-19T05:17:45.265Z,61.12
2019-05-19T05:19:45.464Z,61.51
2019-05-19T05:21:45.266Z,61.47
2019-05-19T05:22:45.476Z,61.51
2019-05-19T05:23:45.307Z,61.02
2019-05-19T05:25:45.367Z,61.41
2019-05-19T05:27:45.471Z,61.60
2019-05-19T05:29:45.503Z,61.28
2019-05-19T05:30:45.663Z,61.70
2019-05-19T05:31:45.580Z,61.51
2019-05-19T05:32:45.740Z,61.80
2019-05-19T05:33:45.673Z,61.60
2019-05-19T05:34:45.754Z,61.47
2019-05-19T05:35:45.711Z,61.47
2019-05-19T05:36:45.772Z,61.60
2019-05-19T05:37:45.783Z,61.47
2019-05-19T05:38:45.813Z,61.67
2019-05-19T05:39:45.834Z,61.67
2019-05-19T05:40:45.872Z,61.60
2019-05-19T05:41:45.890Z,61.89
2019-05-19T05:42:45.938Z,62.08
2019-05-19T05:43:45.963Z,61.89
2019-05-19T05:44:45.994Z,61.99
2019-05-19T05:45:46.031Z,61.89
2019-05-19T05:46:46.066Z,61.70
2019-05-19T05:47:46.098Z,61.60
2019-05-19T05:48:46.136Z,61.60
2019-05-19T05:49:46.165Z,61.80
2019-05-19T05:50:46.194Z,61.51
2019-05-19T05:51:46.229Z,61.51
2019-05-19T05:52:46.263Z,61.51
2019-05-19T05:53:46.293Z,61.60
2019-05-19T05:54:46.333Z,61.80
2019-05-19T05:55:46.355Z,61.70
2019-05-19T05:56:46.398Z,61.80
2019-05-19T05:58:46.466Z,61.22
2019-05-19T06:00:46.527Z,61.41
2019-05-19T06:01:46.569Z,61.22
2019-05-19T06:02:46.629Z,61.34
2019-05-19T06:03:46.642Z,60.96
2019-05-19T06:04:46.665Z,61.15
2019-05-19T06:05:46.693Z,60.96
2019-05-19T06:06:46.728Z,60.76
2019-05-19T06:07:46.765Z,60.96
2019-05-19T06:08:46.797Z,60.96
2019-05-19T06:09:46.833Z,60.86
2019-05-19T06:10:46.875Z,60.76
2019-05-19T06:11:46.904Z,60.96
2019-05-19T06:12:46.925Z,60.96
2019-05-19T06:13:49.578Z,60.96
2019-05-19T06:14:46.999Z,61.05
2019-05-19T06:15:47.032Z,60.96
2019-05-19T06:16:47.072Z,60.96
2019-05-19T06:17:47.139Z,60.86
2019-05-19T06:18:47.128Z,60.96
2019-05-19T06:19:47.162Z,60.86
2019-05-19T06:20:47.221Z,60.96
2019-05-19T06:21:47.237Z,60.38
2019-05-19T06:22:56.553Z,60.28
2019-05-19T06:23:47.299Z,60.38
2019-05-19T06:24:47.329Z,60.57
2019-05-19T06:25:47.374Z,60.28
2019-05-19T06:26:47.412Z,59.89
2019-05-19T06:27:47.442Z,60.18
2019-05-19T06:28:47.479Z,59.99
2019-05-19T06:29:47.500Z,59.99
2019-05-19T06:30:47.530Z,59.89
2019-05-19T06:31:47.562Z,59.80
2019-05-19T06:32:47.607Z,60.02
2019-05-19T06:33:47.639Z,60.02
2019-05-19T06:34:47.667Z,60.21
2019-05-19T06:35:47.704Z,60.21
2019-05-19T06:36:47.746Z,59.25
2019-05-19T06:37:47.785Z,59.92
2019-05-19T06:38:47.811Z,59.53
2019-05-19T06:39:47.840Z,59.44
2019-05-19T06:40:47.868Z,59.44
2019-05-19T06:41:47.917Z,59.44
2019-05-19T06:42:47.942Z,59.63
2019-05-19T06:43:47.977Z,59.53
2019-05-19T06:44:48.005Z,59.63
2019-05-19T06:45:48.042Z,59.63
2019-05-19T06:46:48.080Z,59.53
2019-05-19T06:47:48.167Z,59.73
2019-05-19T06:48:48.140Z,59.53
2019-05-19T06:49:48.178Z,59.63
2019-05-19T06:51:48.248Z,59.53
2019-05-19T06:52:48.305Z,59.83
2019-05-19T06:53:48.320Z,59.53
2019-05-19T06:54:48.345Z,59.73
2019-05-19T06:55:48.377Z,59.63
2019-05-19T06:56:48.410Z,59.53
2019-05-19T06:57:48.449Z,59.73
2019-05-19T06:58:48.483Z,59.63
2019-05-19T06:59:48.514Z,59.44
2019-05-19T07:00:48.557Z,59.63
2019-05-19T07:01:48.587Z,59.73
2019-05-19T07:03:48.654Z,59.44
2019-05-19T07:04:48.680Z,59.63
2019-05-19T07:05:48.724Z,59.53
2019-05-19T07:06:48.785Z,59.53
2019-05-19T07:07:48.789Z,59.53
2019-05-19T07:08:48.827Z,59.25
2019-05-19T07:09:57.824Z,60.02
2019-05-19T07:10:48.889Z,59.63
2019-05-19T07:11:48.941Z,59.73
2019-05-19T07:12:48.957Z,59.34
2019-05-19T07:13:48.985Z,59.25
2019-05-19T07:14:49.021Z,59.15
2019-05-19T07:15:49.078Z,59.25
2019-05-19T07:16:49.095Z,59.34
2019-05-19T07:17:49.124Z,59.25
2019-05-19T07:18:49.161Z,59.44
2019-05-19T07:19:49.191Z,59.15
2019-05-19T07:20:49.227Z,59.25
2019-05-19T07:21:49.261Z,59.28
2019-05-19T07:22:49.324Z,59.18
2019-05-19T07:23:49.334Z,59.08
2019-05-19T07:24:49.409Z,59.28
2019-05-19T07:25:49.402Z,59.08
2019-05-19T07:26:49.535Z,58.95
2019-05-19T07:27:49.467Z,58.80
2019-05-19T07:28:49.556Z,58.80
2019-05-19T07:29:49.539Z,58.80
2019-05-19T07:30:49.569Z,58.80
2019-05-19T07:31:49.610Z,58.80
2019-05-19T07:32:49.643Z,58.76
2019-05-19T07:33:49.669Z,58.98
2019-05-19T07:34:49.709Z,59.08
2019-05-19T07:35:49.761Z,59.25
2019-05-19T07:36:49.779Z,58.89
2019-05-19T07:37:49.814Z,58.70
2019-05-19T07:38:49.853Z,58.80
2019-05-19T07:39:49.882Z,58.89
2019-05-19T07:40:49.918Z,58.50
2019-05-19T07:42:49.987Z,58.80
2019-05-19T07:43:50.017Z,58.80
2019-05-19T07:44:50.060Z,58.60
2019-05-19T07:45:50.096Z,58.70
2019-05-19T07:46:50.115Z,58.80
2019-05-19T07:47:50.159Z,58.31
2019-05-19T07:48:50.186Z,58.80
2019-05-19T07:49:50.226Z,58.80
2019-05-19T07:50:50.260Z,58.80
2019-05-19T07:51:50.306Z,58.80
2019-05-19T07:52:50.337Z,58.60
2019-05-19T07:53:50.413Z,58.98
2019-05-19T07:54:50.390Z,59.01
2019-05-19T07:55:50.453Z,58.60
2019-05-19T07:56:50.469Z,58.50
2019-05-19T07:57:50.513Z,58.70
2019-05-19T07:58:50.541Z,58.50
2019-05-19T07:59:50.570Z,58.60
2019-05-19T08:00:50.728Z,58.89
2019-05-19T08:01:50.694Z,58.53
2019-05-19T08:02:50.674Z,58.98
2019-05-19T08:03:50.715Z,58.24
2019-05-19T08:04:50.748Z,58.24
2019-05-19T08:05:50.771Z,57.86
2019-05-19T08:06:50.817Z,57.95
2019-05-19T08:07:50.886Z,58.02
2019-05-19T08:08:50.885Z,58.24
2019-05-19T08:09:50.918Z,58.72
2019-05-19T08:10:50.952Z,58.04
2019-05-19T08:12:51.017Z,58.04
2019-05-19T08:14:51.085Z,58.63
2019-05-19T08:15:51.135Z,58.04
2019-05-19T08:16:51.251Z,58.04
2019-05-19T08:17:51.232Z,57.86
2019-05-19T08:18:51.233Z,57.86
2019-05-19T08:19:51.264Z,57.95
2019-05-19T08:20:51.293Z,57.28
2019-05-19T08:21:51.334Z,57.86
2019-05-19T08:22:51.596Z,57.86
2019-05-19T08:25:51.503Z,57.37
2019-05-19T08:26:51.543Z,57.28
2019-05-19T08:28:51.612Z,58.04
2019-05-19T08:29:51.729Z,57.86
2019-05-19T08:30:51.645Z,57.56
2019-05-19T08:31:51.694Z,57.76
2019-05-19T08:32:51.716Z,57.30
2019-05-19T08:33:51.765Z,57.46
2019-05-19T08:34:51.788Z,57.40
2019-05-19T08:35:51.844Z,57.69
2019-05-19T08:36:51.861Z,57.69
2019-05-19T08:37:51.897Z,58.17
2019-05-19T08:38:51.930Z,57.37
2019-05-19T08:39:51.970Z,57.50
2019-05-19T08:40:52.062Z,57.59
2019-05-19T08:41:52.030Z,57.11
2019-05-19T08:42:52.062Z,57.40
2019-05-19T08:43:53.478Z,57.40
2019-05-19T08:44:52.142Z,57.30
2019-05-19T08:45:52.183Z,57.20
2019-05-19T08:46:52.216Z,56.82
2019-05-19T08:47:52.339Z,56.82
2019-05-19T08:48:52.281Z,57.20
2019-05-19T08:49:52.311Z,57.50
2019-05-19T08:50:52.362Z,57.40
2019-05-19T08:51:52.392Z,57.40
2019-05-19T08:52:52.420Z,56.82
2019-05-19T08:54:52.484Z,56.82
2019-05-19T08:55:52.629Z,56.82
2019-05-19T08:56:52.566Z,56.92
2019-05-19T08:57:52.592Z,56.65
2019-05-19T08:58:52.650Z,56.82
2019-05-19T08:59:52.666Z,56.52
2019-05-19T09:01:52.734Z,56.62
2019-05-19T09:03:52.802Z,56.75
2019-05-19T09:04:52.843Z,56.85
2019-05-19T09:05:52.883Z,56.75
2019-05-19T09:06:52.907Z,56.56
2019-05-19T09:07:52.959Z,56.46
2019-05-19T09:08:52.981Z,56.75
2019-05-19T09:09:53.078Z,56.85
2019-05-19T09:10:53.061Z,56.85
2019-05-19T09:11:53.089Z,56.56
2019-05-19T09:12:53.119Z,56.65
2019-05-19T09:13:53.175Z,56.36
2019-05-19T09:14:53.192Z,56.46
2019-05-19T09:15:53.234Z,56.16
2019-05-19T09:16:53.273Z,55.98
2019-05-19T09:17:54.288Z,56.16
2019-05-19T09:18:53.329Z,56.56
2019-05-19T09:19:53.369Z,55.98
2019-05-19T09:20:53.407Z,56.16
2019-05-19T09:21:53.436Z,56.07
2019-05-19T09:22:53.477Z,55.68
2019-05-19T09:23:53.510Z,55.78
2019-05-19T09:24:53.552Z,55.78
2019-05-19T09:25:53.587Z,55.68
2019-05-19T09:27:53.659Z,55.68
2019-05-19T09:28:53.689Z,55.58
2019-05-19T09:29:53.728Z,55.20
2019-05-19T09:30:53.765Z,55.58
2019-05-19T09:31:53.792Z,55.78
2019-05-19T09:32:53.834Z,55.40
2019-05-19T09:33:53.865Z,55.88
2019-05-19T09:34:53.899Z,55.58
2019-05-19T09:35:53.957Z,55.49
2019-05-19T09:36:53.974Z,55.68
2019-05-19T09:37:54.004Z,55.49
2019-05-19T09:38:54.137Z,55.78
2019-05-19T09:39:54.185Z,55.58
2019-05-19T09:40:54.112Z,55.58
2019-05-19T09:41:54.162Z,55.88
2019-05-19T09:42:54.194Z,55.68
2019-05-19T09:43:54.215Z,55.78
2019-05-19T09:44:54.255Z,55.68
2019-05-19T09:45:54.449Z,55.49
2019-05-19T09:46:54.326Z,55.88
2019-05-19T09:47:54.371Z,55.78
2019-05-19T09:48:54.501Z,55.68
2019-05-19T09:49:54.432Z,55.78
2019-05-19T09:50:54.470Z,56.16
2019-05-19T09:51:54.509Z,56.56
2019-05-19T09:52:54.677Z,56.07
2019-05-19T09:53:54.578Z,56.07
2019-05-19T09:54:54.916Z,56.07
2019-05-19T09:55:54.703Z,56.56
2019-05-19T09:56:54.688Z,56.10
2019-05-19T09:57:54.814Z,56.16
2019-05-19T09:58:54.750Z,56.20
2019-05-19T09:59:54.797Z,56.59
2019-05-19T10:00:54.836Z,56.46
2019-05-19T10:01:54.860Z,56.00
2019-05-19T10:02:55.377Z,56.39
2019-05-19T10:04:54.970Z,55.58
2019-05-19T10:05:55.004Z,56.49
2019-05-19T10:06:55.041Z,56.10
2019-05-19T10:08:55.108Z,55.81
2019-05-19T10:09:55.156Z,56.20
2019-05-19T10:10:55.178Z,55.81
2019-05-19T10:12:55.255Z,56.10
2019-05-19T10:13:55.344Z,56.10
2019-05-19T10:14:56.024Z,55.71
2019-05-19T10:15:55.379Z,56.00
2019-05-19T10:16:55.402Z,55.62
2019-05-19T10:17:55.731Z,55.62
2019-05-19T10:18:55.776Z,55.42
2019-05-19T10:19:55.562Z,55.62
2019-05-19T10:20:55.572Z,55.42
2019-05-19T10:21:55.613Z,55.90
2019-05-19T10:22:55.716Z,55.42
2019-05-19T10:23:55.651Z,55.71
2019-05-19T10:25:18.340Z,55.81
2019-05-19T10:25:55.763Z,55.81
2019-05-19T10:26:55.753Z,55.71
2019-05-19T10:27:55.845Z,55.90
2019-05-19T10:28:55.938Z,55.81
2019-05-19T10:29:56.004Z,55.71
2019-05-19T10:30:55.895Z,55.62
2019-05-19T10:32:58.720Z,56.00
2019-05-19T10:33:56.068Z,55.81
2019-05-19T10:34:56.072Z,55.71
2019-05-19T10:35:56.457Z,55.62
2019-05-19T10:36:56.132Z,55.62
2019-05-19T10:37:56.147Z,55.62
2019-05-19T10:38:56.225Z,55.42
2019-05-19T10:39:56.260Z,55.62
2019-05-19T10:41:56.395Z,55.22
2019-05-19T10:42:56.396Z,55.81
2019-05-19T10:43:56.396Z,55.81
2019-05-19T10:44:56.409Z,55.62
2019-05-19T10:45:56.439Z,55.54
2019-05-19T10:46:56.468Z,55.71
2019-05-19T10:47:56.508Z,55.52
2019-05-19T10:48:56.543Z,55.32
2019-05-19T10:49:56.579Z,55.44
2019-05-19T10:50:56.619Z,55.32
2019-05-19T10:51:57.370Z,55.13
2019-05-19T10:52:56.791Z,55.13
2019-05-19T10:53:56.776Z,55.26
2019-05-19T10:54:56.765Z,55.16
2019-05-19T10:55:56.804Z,55.13
2019-05-19T10:56:56.844Z,55.44
2019-05-19T10:57:56.871Z,55.54
2019-05-19T10:58:56.907Z,55.32
2019-05-19T10:59:56.951Z,55.44
2019-05-19T11:00:57.082Z,55.54
2019-05-19T11:01:57.010Z,55.52
2019-05-19T11:02:57.057Z,55.42
2019-05-19T11:03:57.180Z,55.42
2019-05-19T11:04:57.122Z,55.26
2019-05-19T11:05:57.158Z,55.35
2019-05-19T11:06:57.205Z,55.35
2019-05-19T11:07:57.236Z,55.06
2019-05-19T11:08:57.377Z,55.74
2019-05-19T11:09:57.318Z,55.35
2019-05-19T11:10:57.362Z,55.44
2019-05-19T11:11:57.382Z,55.16
2019-05-19T11:12:57.413Z,55.54
2019-05-19T11:13:57.455Z,55.54
2019-05-19T11:14:57.487Z,55.54
2019-05-19T11:15:57.519Z,55.54
2019-05-19T11:16:57.564Z,55.35
2019-05-19T11:17:57.693Z,55.16
2019-05-19T11:18:57.630Z,54.86
2019-05-19T11:19:57.672Z,54.67
2019-05-19T11:20:57.711Z,54.77
2019-05-19T11:21:57.768Z,54.86
2019-05-19T11:22:57.776Z,54.86
2019-05-19T11:23:57.915Z,54.77
2019-05-19T11:24:57.844Z,55.06
2019-05-19T11:25:57.882Z,55.54
2019-05-19T11:26:57.914Z,54.96
2019-05-19T11:27:58.060Z,55.06
2019-05-19T11:28:57.998Z,55.06
2019-05-19T11:29:58.027Z,54.86
2019-05-19T11:30:58.072Z,54.96
2019-05-19T11:31:58.104Z,54.48
2019-05-19T11:32:58.136Z,55.06
2019-05-19T11:33:58.178Z,54.67
2019-05-19T11:34:58.211Z,54.86
2019-05-19T11:35:58.263Z,54.77
2019-05-19T11:36:58.283Z,54.58
2019-05-19T11:37:58.327Z,54.58
2019-05-19T11:39:58.492Z,54.86
2019-05-19T11:40:58.436Z,54.58
2019-05-19T11:41:58.477Z,54.77
2019-05-19T11:42:58.500Z,54.77
2019-05-19T11:44:58.579Z,54.58
2019-05-19T11:45:58.619Z,54.86
2019-05-19T11:46:58.661Z,54.77
2019-05-19T11:47:58.692Z,54.77
2019-05-19T11:48:58.723Z,54.80
2019-05-19T11:49:58.753Z,54.86
2019-05-19T11:50:58.866Z,54.70
2019-05-19T11:51:58.831Z,54.67
2019-05-19T11:52:58.873Z,54.31
2019-05-19T11:53:58.909Z,54.99
2019-05-19T11:54:58.936Z,54.48
2019-05-19T11:56:06.660Z,54.31
2019-05-19T11:56:59.009Z,54.50
2019-05-19T11:57:59.059Z,54.41
2019-05-19T11:58:59.089Z,54.31
2019-05-19T11:59:59.228Z,54.31
2019-05-19T12:00:59.167Z,54.41
2019-05-19T12:01:59.204Z,54.41
2019-05-19T12:02:59.245Z,54.41
2019-05-19T12:03:59.375Z,54.21
2019-05-19T12:04:59.304Z,54.31
2019-05-19T12:05:59.345Z,54.31
2019-05-19T12:06:59.386Z,54.41
2019-05-19T12:08:59.455Z,54.11
2019-05-19T12:10:59.631Z,54.31
2019-05-19T12:11:59.572Z,54.41
2019-05-19T12:12:59.602Z,54.11
2019-05-19T12:13:59.648Z,54.50
2019-05-19T12:14:59.669Z,54.50
2019-05-19T12:15:59.753Z,54.31
2019-05-19T12:16:59.764Z,54.50
2019-05-19T12:17:59.782Z,54.41
2019-05-19T12:18:59.822Z,54.50
2019-05-19T12:19:59.859Z,54.41
2019-05-19T12:20:59.999Z,54.31
2019-05-19T12:21:59.932Z,53.83
2019-05-19T12:22:59.973Z,54.50
2019-05-19T12:24:00.112Z,53.92
2019-05-19T12:25:00.046Z,54.02
2019-05-19T12:26:00.198Z,54.02
2019-05-19T12:27:00.111Z,53.92
2019-05-19T12:28:00.157Z,53.92
2019-05-19T12:29:00.183Z,54.11
2019-05-19T12:30:00.229Z,53.83
2019-05-19T12:31:00.267Z,53.83
2019-05-19T12:32:00.381Z,54.31
2019-05-19T12:33:00.349Z,54.24
2019-05-19T12:34:00.372Z,54.21
2019-05-19T12:35:00.406Z,53.92
2019-05-19T12:36:00.450Z,54.31
2019-05-19T12:37:00.486Z,54.11
2019-05-19T12:38:00.534Z,53.92
2019-05-19T12:39:00.555Z,53.92
2019-05-19T12:40:00.600Z,53.95
2019-05-19T12:41:00.628Z,53.95
2019-05-19T12:42:00.667Z,54.53
2019-05-19T12:43:00.712Z,54.44
2019-05-19T12:44:00.744Z,54.24
2019-05-19T12:45:00.781Z,54.21
2019-05-19T12:46:00.898Z,54.05
2019-05-19T12:47:00.851Z,54.14
2019-05-19T12:48:00.885Z,53.95
2019-05-19T12:49:00.959Z,54.44
2019-05-19T12:50:00.959Z,54.05
2019-05-19T12:51:00.998Z,53.75
2019-05-19T12:52:01.038Z,54.14
2019-05-19T12:53:01.085Z,54.14
2019-05-19T12:54:01.110Z,53.95
2019-05-19T12:55:01.153Z,54.34
2019-05-19T12:56:01.235Z,54.05
2019-05-19T12:57:01.217Z,54.34
2019-05-19T12:59:01.306Z,54.05
2019-05-19T13:00:01.337Z,54.14
2019-05-19T13:01:01.759Z,53.47
2019-05-19T13:03:01.561Z,54.34
2019-05-19T13:04:01.552Z,54.34
2019-05-19T13:05:05.303Z,54.05
2019-05-19T13:06:01.694Z,54.05
2019-05-19T13:08:01.876Z,53.66
2019-05-19T13:09:01.674Z,54.14
2019-05-19T13:10:01.849Z,53.85
2019-05-19T13:11:02.101Z,54.24
2019-05-19T13:12:01.778Z,53.95
2019-05-19T13:13:02.478Z,54.24
2019-05-19T13:14:02.123Z,54.14
2019-05-19T13:16:01.928Z,54.24
2019-05-19T13:17:02.722Z,53.75
2019-05-19T13:18:02.055Z,53.47
2019-05-19T13:19:02.036Z,54.24
2019-05-19T13:21:02.116Z,54.24
2019-05-19T13:22:02.220Z,54.05
2019-05-19T13:23:02.281Z,54.34
2019-05-19T13:24:02.504Z,54.53
2019-05-19T13:25:02.252Z,54.44
2019-05-19T13:26:02.551Z,54.44
2019-05-19T13:27:03.072Z,53.66
2019-05-19T13:28:02.449Z,53.56
2019-05-19T13:30:02.440Z,53.39
2019-05-19T13:31:02.849Z,53.30
2019-05-19T13:32:02.534Z,53.30
2019-05-19T13:33:03.141Z,53.49
2019-05-19T13:34:02.772Z,53.59
2019-05-19T13:35:02.627Z,53.59
2019-05-19T13:36:02.818Z,53.10
2019-05-19T13:37:02.704Z,53.10
2019-05-19T13:38:02.745Z,52.72
2019-05-19T13:39:02.798Z,53.00
2019-05-19T13:40:02.848Z,53.10
2019-05-19T13:41:02.851Z,53.00
2019-05-19T13:42:02.920Z,53.49
2019-05-19T13:43:02.942Z,53.10
2019-05-19T13:44:02.966Z,53.39
2019-05-19T13:45:03.007Z,53.20
2019-05-19T13:46:03.058Z,53.20
2019-05-19T13:47:03.070Z,53.10
2019-05-19T13:48:03.117Z,53.00
2019-05-19T13:49:03.160Z,53.10
2019-05-19T13:50:03.184Z,53.30
2019-05-19T13:51:03.227Z,53.10
2019-05-19T13:52:03.261Z,53.10
2019-05-19T13:53:03.301Z,53.10
2019-05-19T13:54:03.351Z,53.20
2019-05-19T13:55:03.371Z,53.10
2019-05-19T13:56:03.411Z,52.91
2019-05-19T13:57:11.877Z,52.81
2019-05-19T13:58:03.738Z,52.52
2019-05-19T13:59:03.523Z,52.45
2019-05-19T14:00:03.559Z,52.64
2019-05-19T14:01:03.594Z,52.15
2019-05-19T14:02:03.631Z,52.55
2019-05-19T14:03:03.680Z,52.67
2019-05-19T14:04:03.710Z,51.97
2019-05-19T14:05:03.748Z,51.70
2019-05-19T14:06:03.779Z,51.79
2019-05-19T14:07:03.823Z,51.70
2019-05-19T14:08:03.874Z,51.99
2019-05-19T14:09:03.909Z,51.60
2019-05-19T14:10:03.948Z,51.40
2019-05-19T14:11:03.986Z,51.31
2019-05-19T14:12:04.014Z,51.40
2019-05-19T14:13:04.054Z,51.40
2019-05-19T14:14:04.098Z,51.31
2019-05-19T14:15:04.423Z,51.21
2019-05-19T14:16:04.175Z,51.70
2019-05-19T14:17:04.217Z,51.50